createdAt,value
2019-01-13T00:01:20.876Z,96.20
2019-01-13T00:03:48.204Z,95.30
2019-01-13T00:06:15.650Z,96.40
2019-01-13T00:08:42.996Z,95.20
2019-01-13T00:11:10.693Z,96.40
2019-01-13T00:13:38.032Z,95.80
2019-01-13T00:16:05.537Z,95.20
2019-01-13T00:18:32.967Z,96.70
2019-01-13T00:21:00.412Z,95.20
2019-01-13T00:23:27.842Z,95.20
2019-01-13T00:25:55.317Z,93.90
2019-01-13T00:28:22.732Z,93.60
2019-01-13T00:30:50.180Z,93.00
2019-01-13T00:33:17.594Z,94.70
2019-01-13T00:35:44.996Z,92.20
2019-01-13T00:38:12.323Z,93.00
2019-01-13T00:40:39.617Z,92.60
2019-01-13T00:43:06.921Z,93.70
2019-01-13T00:45:34.343Z,93.90
2019-01-13T00:48:01.762Z,91.40
2019-01-13T00:50:29.238Z,93.60
2019-01-13T00:52:56.694Z,93.00
2019-01-13T00:55:24.125Z,92.90
2019-01-13T00:57:51.590Z,95.10
2019-01-13T01:00:26.513Z,92.50
2019-01-13T01:02:50.334Z,93.40
2019-01-13T01:05:17.858Z,91.00
2019-01-13T01:07:47.128Z,92.90
2019-01-13T01:10:15.760Z,92.30
2019-01-13T01:12:43.324Z,92.50
2019-01-13T01:15:10.878Z,94.60
2019-01-13T01:17:38.618Z,92.90
2019-01-13T01:20:07.478Z,93.10
2019-01-13T01:22:34.895Z,94.00
2019-01-13T01:25:02.309Z,94.70
2019-01-13T01:27:29.733Z,93.00
2019-01-13T01:29:57.058Z,95.60
2019-01-13T01:32:24.465Z,93.40
2019-01-13T01:34:51.762Z,93.80
2019-01-13T01:37:19.194Z,94.30
2019-01-13T01:39:46.474Z,94.50
2019-01-13T01:42:13.779Z,94.50
2019-01-13T01:44:41.104Z,94.10
2019-01-13T01:47:08.452Z,95.10
2019-01-13T01:49:35.908Z,95.30
2019-01-13T01:52:03.305Z,94.40
2019-01-13T01:54:30.755Z,94.60
2019-01-13T01:56:58.154Z,95.60
2019-01-13T01:59:25.599Z,96.10
2019-01-13T02:01:53.008Z,94.90
2019-01-13T02:04:20.331Z,93.80
2019-01-13T02:06:48.014Z,93.90
2019-01-13T02:09:15.390Z,94.90
2019-01-13T02:11:42.791Z,94.70
2019-01-13T02:14:10.104Z,95.40
2019-01-13T02:16:37.426Z,96.10
2019-01-13T02:19:04.820Z,95.00
2019-01-13T02:21:32.123Z,94.90
2019-01-13T02:23:59.585Z,94.70
2019-01-13T02:26:26.862Z,93.90
2019-01-13T02:28:54.197Z,93.80
2019-01-13T02:31:21.615Z,92.70
2019-01-13T02:33:49.035Z,93.00
2019-01-13T02:36:16.425Z,93.80
2019-01-13T02:38:43.742Z,94.50
2019-01-13T02:41:11.199Z,93.70
2019-01-13T02:43:38.671Z,94.40
2019-01-13T02:46:06.037Z,93.10
2019-01-13T02:48:33.394Z,92.90
2019-01-13T02:51:01.018Z,92.50
2019-01-13T02:53:28.418Z,92.20
2019-01-13T02:55:55.817Z,93.20
2019-01-13T02:58:23.259Z,91.10
2019-01-13T03:00:57.031Z,93.10
2019-01-13T03:03:20.185Z,92.50
2019-01-13T03:05:47.522Z,92.90
2019-01-13T03:08:14.944Z,92.70
2019-01-13T03:10:42.333Z,93.00
2019-01-13T03:13:09.615Z,90.70
2019-01-13T03:15:36.925Z,93.10
2019-01-13T03:18:04.370Z,94.10
2019-01-13T03:20:31.700Z,93.20
2019-01-13T03:22:59.109Z,92.80
2019-01-13T03:25:26.522Z,91.90
2019-01-13T03:27:53.959Z,92.70
2019-01-13T03:30:23.231Z,93.80
2019-01-13T03:32:50.629Z,93.70
2019-01-13T03:35:18.450Z,93.10
2019-01-13T03:37:45.930Z,91.90
2019-01-13T03:40:21.271Z,92.20
2019-01-13T03:42:48.669Z,92.90
2019-01-13T03:45:15.958Z,90.70
2019-01-13T03:47:43.369Z,93.40
2019-01-13T03:50:13.395Z,90.90
2019-01-13T03:52:40.905Z,92.30
2019-01-13T03:55:08.695Z,89.80
2019-01-13T03:57:36.017Z,90.20
2019-01-13T04:00:06.302Z,91.20
2019-01-13T04:02:33.648Z,90.30
2019-01-13T04:05:01.014Z,92.80
2019-01-13T04:07:28.319Z,91.10
2019-01-13T04:09:55.626Z,91.20
2019-01-13T04:12:23.035Z,92.50
2019-01-13T04:14:50.428Z,92.50
2019-01-13T04:17:18.651Z,93.00
2019-01-13T04:19:45.943Z,91.40
2019-01-13T04:22:13.326Z,90.80
2019-01-13T04:24:41.031Z,90.70
2019-01-13T04:27:08.457Z,91.70
2019-01-13T04:29:35.860Z,92.10
2019-01-13T04:32:03.486Z,92.50
2019-01-13T04:34:30.868Z,92.20
2019-01-13T04:36:58.199Z,93.70
2019-01-13T04:39:25.585Z,93.10
2019-01-13T04:41:53.413Z,93.20
2019-01-13T04:44:20.802Z,93.80
2019-01-13T04:46:48.114Z,91.60
2019-01-13T04:49:15.521Z,91.40
2019-01-13T04:51:42.950Z,91.50
2019-01-13T04:54:10.347Z,92.40
2019-01-13T04:56:37.762Z,91.70
2019-01-13T04:59:05.064Z,91.60
2019-01-13T05:01:34.823Z,93.00
2019-01-13T05:04:01.582Z,90.30
2019-01-13T05:06:28.876Z,90.50
2019-01-13T05:08:56.198Z,91.50
2019-01-13T05:11:23.610Z,92.40
2019-01-13T05:13:50.998Z,91.10
2019-01-13T05:16:18.388Z,90.40
2019-01-13T05:18:45.821Z,90.80
2019-01-13T05:21:13.150Z,89.90
2019-01-13T05:23:40.544Z,90.80
2019-01-13T05:26:07.950Z,90.80
2019-01-13T05:28:35.380Z,91.40
2019-01-13T05:31:02.811Z,90.50
2019-01-13T05:33:30.216Z,92.40
2019-01-13T05:35:57.605Z,91.50
2019-01-13T05:38:24.935Z,93.70
2019-01-13T05:40:52.329Z,92.90
2019-01-13T05:43:19.760Z,92.40
2019-01-13T05:45:47.177Z,90.30
2019-01-13T05:48:14.491Z,90.60
2019-01-13T05:50:41.823Z,91.00
2019-01-13T05:53:09.224Z,90.60
2019-01-13T05:55:36.854Z,89.70
2019-01-13T05:58:04.242Z,89.10
2019-01-13T06:00:35.240Z,91.20
2019-01-13T06:03:02.635Z,90.80
2019-01-13T06:05:30.020Z,90.40
2019-01-13T06:07:57.433Z,90.50
2019-01-13T06:10:24.861Z,90.60
2019-01-13T06:12:52.245Z,90.80
2019-01-13T06:15:23.760Z,91.40
2019-01-13T06:17:51.052Z,92.90
2019-01-13T06:20:20.258Z,91.20
2019-01-13T06:22:47.571Z,89.30
2019-01-13T06:25:14.924Z,89.80
2019-01-13T06:27:42.314Z,89.90
2019-01-13T06:30:12.658Z,91.90
2019-01-13T06:32:39.948Z,88.90
2019-01-13T06:35:07.292Z,89.20
2019-01-13T06:37:34.652Z,88.80
2019-01-13T06:40:01.944Z,89.70
2019-01-13T06:42:29.268Z,88.90
2019-01-13T06:44:56.578Z,89.30
2019-01-13T06:47:23.964Z,87.90
2019-01-13T06:49:51.175Z,89.80
2019-01-13T06:52:18.519Z,89.60
2019-01-13T06:54:45.933Z,89.50
2019-01-13T06:57:13.261Z,89.60
2019-01-13T06:59:40.661Z,90.50
2019-01-13T07:02:08.466Z,91.30
2019-01-13T07:04:35.870Z,93.30
2019-01-13T07:07:03.223Z,90.90
2019-01-13T07:09:30.605Z,91.20
2019-01-13T07:11:57.949Z,91.80
2019-01-13T07:14:25.333Z,90.80
2019-01-13T07:16:52.682Z,91.60
2019-01-13T07:19:20.086Z,90.70
2019-01-13T07:21:47.535Z,89.90
2019-01-13T07:24:14.916Z,90.70
2019-01-13T07:26:42.321Z,91.80
2019-01-13T07:29:09.641Z,92.40
2019-01-13T07:31:37.011Z,90.50
2019-01-13T07:34:04.419Z,91.80
2019-01-13T07:36:31.807Z,90.80
2019-01-13T07:38:59.539Z,90.70
2019-01-13T07:41:27.279Z,88.90
2019-01-13T07:43:54.649Z,91.30
2019-01-13T07:46:21.989Z,89.60
2019-01-13T07:48:49.306Z,89.40
2019-01-13T07:51:16.721Z,89.90
2019-01-13T07:53:44.431Z,90.80
2019-01-13T07:56:11.757Z,90.20
2019-01-13T07:58:39.166Z,90.80
2019-01-13T08:01:06.606Z,90.00
2019-01-13T08:03:34.035Z,90.10
2019-01-13T08:06:01.493Z,90.70
2019-01-13T08:08:28.926Z,89.90
2019-01-13T08:10:56.335Z,89.80
2019-01-13T08:13:23.792Z,90.70
2019-01-13T08:15:51.246Z,90.00
2019-01-13T08:18:18.718Z,90.30
2019-01-13T08:20:46.159Z,90.70
2019-01-13T08:23:16.080Z,91.00
2019-01-13T08:25:44.446Z,90.60
2019-01-13T08:28:11.883Z,89.20
2019-01-13T08:30:39.315Z,89.10
2019-01-13T08:33:09.816Z,90.50
2019-01-13T08:35:37.578Z,89.90
2019-01-13T08:38:05.054Z,90.00
2019-01-13T08:40:32.784Z,91.00
2019-01-13T08:43:00.218Z,90.90
2019-01-13T08:45:27.676Z,92.10
2019-01-13T08:47:55.113Z,90.10
2019-01-13T08:50:23.521Z,89.80
2019-01-13T08:52:50.903Z,90.80
2019-01-13T08:55:18.484Z,91.30
2019-01-13T08:57:45.946Z,90.30
2019-01-13T09:00:32.762Z,90.20
2019-01-13T09:03:00.903Z,91.30
2019-01-13T09:05:28.330Z,90.00
2019-01-13T09:07:55.792Z,89.40
2019-01-13T09:10:23.295Z,89.20
2019-01-13T09:12:56.649Z,89.90
2019-01-13T09:15:22.097Z,89.60
2019-01-13T09:17:49.540Z,89.20
2019-01-13T09:20:27.954Z,91.50
2019-01-13T09:22:56.993Z,90.90
2019-01-13T09:25:26.568Z,92.90
2019-01-13T09:27:54.116Z,92.30
2019-01-13T09:30:26.074Z,92.30
2019-01-13T09:32:53.563Z,91.80
2019-01-13T09:35:21.304Z,92.50
2019-01-13T09:37:48.839Z,91.20
2019-01-13T09:40:19.237Z,91.00
2019-01-13T09:42:46.699Z,91.20
2019-01-13T09:45:14.269Z,90.60
2019-01-13T09:47:41.964Z,89.90
2019-01-13T09:50:11.457Z,90.80
2019-01-13T09:52:38.955Z,90.10
2019-01-13T09:55:08.048Z,90.40
2019-01-13T09:57:35.925Z,91.60
2019-01-13T10:00:06.033Z,89.40
2019-01-13T10:02:33.482Z,90.80
2019-01-13T10:05:00.961Z,89.20
2019-01-13T10:07:28.429Z,89.30
2019-01-13T10:09:55.858Z,89.50
2019-01-13T10:12:23.363Z,91.00
2019-01-13T10:14:50.886Z,91.60
2019-01-13T10:17:18.397Z,89.20
2019-01-13T10:19:45.823Z,90.80
2019-01-13T10:22:13.394Z,91.70
2019-01-13T10:24:40.840Z,91.80
2019-01-13T10:27:08.360Z,91.20
2019-01-13T10:29:35.816Z,90.40
2019-01-13T10:32:03.487Z,91.90
2019-01-13T10:34:30.902Z,90.30
2019-01-13T10:36:58.363Z,89.40
2019-01-13T10:39:25.877Z,90.50
2019-01-13T10:41:53.769Z,90.80
2019-01-13T10:44:21.194Z,91.10
2019-01-13T10:46:48.999Z,89.20
2019-01-13T10:49:17.137Z,88.30
2019-01-13T10:51:44.599Z,90.00
2019-01-13T10:54:12.376Z,90.90
2019-01-13T10:56:39.834Z,92.30
2019-01-13T10:59:07.263Z,90.80
2019-01-13T11:01:34.717Z,93.50
2019-01-13T11:04:02.112Z,91.40
2019-01-13T11:06:29.659Z,90.30
2019-01-13T11:08:57.380Z,91.90
2019-01-13T11:11:24.894Z,90.40
2019-01-13T11:13:52.355Z,89.80
2019-01-13T11:16:19.717Z,90.70
2019-01-13T11:18:47.159Z,90.10
2019-01-13T11:21:14.606Z,91.30
2019-01-13T11:23:43.850Z,92.00
2019-01-13T11:26:11.300Z,91.60
2019-01-13T11:28:39.089Z,92.10
2019-01-13T11:31:06.691Z,93.60
2019-01-13T11:33:34.163Z,92.50
2019-01-13T11:36:02.118Z,92.80
2019-01-13T11:38:29.666Z,93.20
2019-01-13T11:40:57.159Z,91.50
2019-01-13T11:43:25.232Z,92.50
2019-01-13T11:45:52.710Z,92.50
2019-01-13T11:48:22.564Z,93.30
2019-01-13T11:50:49.932Z,94.30
2019-01-13T11:53:17.526Z,94.40
2019-01-13T11:55:45.054Z,93.40
2019-01-13T11:58:15.741Z,92.20
2019-01-13T12:00:44.948Z,91.70
2019-01-13T12:03:16.999Z,93.40
2019-01-13T12:05:43.211Z,93.00
2019-01-13T12:08:10.625Z,92.60
2019-01-13T12:10:39.020Z,94.60
2019-01-13T12:13:07.336Z,93.80
2019-01-13T12:15:35.430Z,93.80
2019-01-13T12:18:03.099Z,94.20
2019-01-13T12:20:30.501Z,93.50
2019-01-13T12:22:58.061Z,94.80
2019-01-13T12:25:25.584Z,94.30
2019-01-13T12:27:53.349Z,95.60
2019-01-13T12:30:25.802Z,94.40
2019-01-13T12:32:53.455Z,94.30
2019-01-13T12:35:21.928Z,95.10
2019-01-13T12:37:49.559Z,96.10
2019-01-13T12:40:18.466Z,95.40
2019-01-13T12:42:46.455Z,95.70
2019-01-13T12:45:15.711Z,96.20
2019-01-13T12:47:43.168Z,94.70
2019-01-13T12:50:13.956Z,95.20
2019-01-13T12:52:41.470Z,95.40
2019-01-13T12:55:09.033Z,95.60
2019-01-13T12:57:36.562Z,95.50
2019-01-13T13:00:05.212Z,95.50
2019-01-13T13:02:32.704Z,95.30
2019-01-13T13:05:00.383Z,95.90
2019-01-13T13:07:28.246Z,95.10
2019-01-13T13:09:56.105Z,94.10
2019-01-13T13:12:23.639Z,95.60
2019-01-13T13:14:51.442Z,95.20
2019-01-13T13:17:19.254Z,95.80
2019-01-13T13:19:47.163Z,96.00
2019-01-13T13:22:14.638Z,94.20
2019-01-13T13:24:42.094Z,93.30
2019-01-13T13:27:09.696Z,94.70
2019-01-13T13:29:37.173Z,94.20
2019-01-13T13:32:04.921Z,92.90
2019-01-13T13:34:32.277Z,95.80
2019-01-13T13:37:11.991Z,95.00
2019-01-13T13:39:39.879Z,95.40
2019-01-13T13:42:07.640Z,95.30
2019-01-13T13:44:35.175Z,95.10
2019-01-13T13:47:02.730Z,94.70
2019-01-13T13:49:30.606Z,94.70
2019-01-13T13:51:58.141Z,93.90
2019-01-13T13:54:25.721Z,95.10
2019-01-13T13:56:53.295Z,96.10
2019-01-13T13:59:20.825Z,95.60
2019-01-13T14:01:48.951Z,95.90
2019-01-13T14:04:17.309Z,97.00
2019-01-13T14:06:45.815Z,96.20
2019-01-13T14:09:14.091Z,96.90
2019-01-13T14:11:42.398Z,95.80
2019-01-13T14:14:10.682Z,96.60
2019-01-13T14:16:38.268Z,96.10
2019-01-13T14:19:05.804Z,96.00
2019-01-13T14:21:33.845Z,95.40
2019-01-13T14:24:01.550Z,94.40
2019-01-13T14:26:29.982Z,94.20
2019-01-13T14:28:57.963Z,95.60
2019-01-13T14:31:25.537Z,94.70
2019-01-13T14:33:53.266Z,94.10
2019-01-13T14:36:21.040Z,94.50
2019-01-13T14:38:48.821Z,94.20
2019-01-13T14:41:16.342Z,94.10
2019-01-13T14:43:43.911Z,94.80
2019-01-13T14:46:11.521Z,96.10
2019-01-13T14:48:38.966Z,95.10
2019-01-13T14:51:06.538Z,96.40
2019-01-13T14:53:34.017Z,96.60
2019-01-13T14:56:01.512Z,94.90
2019-01-13T14:58:29.496Z,95.30
2019-01-13T15:00:57.077Z,95.80
2019-01-13T15:03:27.995Z,95.70
2019-01-13T15:05:55.816Z,95.80
2019-01-13T15:08:23.365Z,96.40
2019-01-13T15:10:50.821Z,96.40
2019-01-13T15:13:18.327Z,96.40
2019-01-13T15:15:45.814Z,96.70
2019-01-13T15:18:13.327Z,96.80
2019-01-13T15:20:40.825Z,96.70
2019-01-13T15:23:08.883Z,96.60
2019-01-13T15:25:36.389Z,97.10
2019-01-13T15:28:03.985Z,97.20
2019-01-13T15:30:35.942Z,97.30
2019-01-13T15:33:04.431Z,97.40
2019-01-13T15:35:32.272Z,97.40
2019-01-13T15:37:59.632Z,97.40
2019-01-13T15:40:27.095Z,97.40
2019-01-13T15:42:54.537Z,97.40
2019-01-13T15:45:22.148Z,97.40
2019-01-13T15:47:49.528Z,97.40
2019-01-13T15:50:19.271Z,97.40
2019-01-13T15:52:46.972Z,97.40
2019-01-13T15:55:15.676Z,97.40
2019-01-13T15:57:43.103Z,97.40
2019-01-13T16:00:13.845Z,97.40
2019-01-13T16:02:41.319Z,97.40
2019-01-13T16:05:08.926Z,97.40
2019-01-13T16:07:36.424Z,97.40
2019-01-13T16:10:06.730Z,97.40
2019-01-13T16:12:34.233Z,97.40
2019-01-13T16:15:02.063Z,97.40
2019-01-13T16:17:29.475Z,97.40
2019-01-13T16:19:57.185Z,97.40
2019-01-13T16:22:24.766Z,97.40
2019-01-13T16:24:52.627Z,97.40
2019-01-13T16:27:20.161Z,97.40
2019-01-13T16:29:47.654Z,97.40
2019-01-13T16:32:15.144Z,97.40
2019-01-13T16:34:42.607Z,97.40
2019-01-13T16:37:10.176Z,97.40
2019-01-13T16:39:38.151Z,97.40
2019-01-13T16:42:05.669Z,97.40
2019-01-13T16:44:33.439Z,97.40
2019-01-13T16:47:00.902Z,97.40
2019-01-13T16:49:28.364Z,97.40
2019-01-13T16:51:55.822Z,97.40
2019-01-13T16:54:23.278Z,97.10
2019-01-13T16:56:50.874Z,97.40
2019-01-13T16:59:18.631Z,97.40
2019-01-13T17:01:46.573Z,97.40
2019-01-13T17:04:14.647Z,97.40
2019-01-13T17:06:43.483Z,97.40
2019-01-13T17:09:11.614Z,97.40
2019-01-13T17:11:39.098Z,97.20
2019-01-13T17:14:06.550Z,97.40
2019-01-13T17:16:33.996Z,97.40
2019-01-13T17:19:01.492Z,97.40
2019-01-13T17:21:29.008Z,97.40
2019-01-13T17:23:56.520Z,97.40
2019-01-13T17:26:23.968Z,97.40
2019-01-13T17:28:51.522Z,97.40
2019-01-13T17:31:19.090Z,97.40
2019-01-13T17:33:46.637Z,97.40
2019-01-13T17:36:14.128Z,97.40
2019-01-13T17:38:41.724Z,97.40
2019-01-13T17:41:09.265Z,97.40
2019-01-13T17:43:36.753Z,97.40
2019-01-13T17:46:04.392Z,97.40
2019-01-13T17:48:31.928Z,97.40
2019-01-13T17:50:59.787Z,97.40
2019-01-13T17:53:27.477Z,97.40
2019-01-13T17:55:54.948Z,97.40
2019-01-13T17:58:22.441Z,97.40
2019-01-13T18:01:14.768Z,97.40
2019-01-13T18:03:44.318Z,97.30
2019-01-13T18:06:11.856Z,97.40
2019-01-13T18:08:39.460Z,97.40
2019-01-13T18:11:07.914Z,97.40
2019-01-13T18:13:35.502Z,97.40
2019-01-13T18:16:03.376Z,97.40
2019-01-13T18:18:30.894Z,97.40
2019-01-13T18:20:58.483Z,97.40
2019-01-13T18:23:26.103Z,97.40
2019-01-13T18:25:53.703Z,97.40
2019-01-13T18:28:21.190Z,97.40
2019-01-13T18:30:48.682Z,97.40
2019-01-13T18:33:16.176Z,97.40
2019-01-13T18:35:43.712Z,97.40
2019-01-13T18:38:11.628Z,97.40
2019-01-13T18:40:39.179Z,97.40
2019-01-13T18:43:06.775Z,97.40
2019-01-13T18:45:34.331Z,97.40
2019-01-13T18:48:01.983Z,97.40
2019-01-13T18:50:29.606Z,96.80
2019-01-13T18:53:03.669Z,97.40
2019-01-13T18:55:31.283Z,97.40
2019-01-13T18:57:59.209Z,97.40
2019-01-13T19:00:27.129Z,97.40
2019-01-13T19:02:55.136Z,97.40
2019-01-13T19:05:23.626Z,97.40
2019-01-13T19:07:51.580Z,96.60
2019-01-13T19:10:26.669Z,96.50
2019-01-13T19:13:36.370Z,96.90
2019-01-13T19:16:04.114Z,97.40
2019-01-13T19:18:31.912Z,97.10
2019-01-13T19:21:02.197Z,97.40
2019-01-13T19:23:29.887Z,97.10
2019-01-13T19:25:57.570Z,96.90
2019-01-13T19:28:25.317Z,96.50
2019-01-13T19:30:53.163Z,96.10
2019-01-13T19:33:21.291Z,96.50
2019-01-13T19:35:48.999Z,96.10
2019-01-13T19:38:16.666Z,97.30
2019-01-13T19:40:44.334Z,96.90
2019-01-13T19:43:11.951Z,97.10
2019-01-13T19:45:39.961Z,97.40
2019-01-13T19:48:09.152Z,97.30
2019-01-13T19:50:37.280Z,97.40
2019-01-13T19:53:05.421Z,97.40
2019-01-13T19:55:33.080Z,97.40
2019-01-13T19:58:05.279Z,97.10
2019-01-13T20:00:37.380Z,97.40
2019-01-13T20:03:06.326Z,97.10
2019-01-13T20:05:33.910Z,97.10
2019-01-13T20:08:01.810Z,96.60
2019-01-13T20:10:29.883Z,97.00
2019-01-13T20:12:57.757Z,97.40
2019-01-13T20:15:25.329Z,96.70
2019-01-13T20:17:52.964Z,95.60
2019-01-13T20:20:20.640Z,94.70
2019-01-13T20:22:48.701Z,94.60
2019-01-13T20:25:16.367Z,94.90
2019-01-13T20:27:44.570Z,95.90
2019-01-13T20:30:14.749Z,95.50
2019-01-13T20:32:42.773Z,95.80
2019-01-13T20:35:10.402Z,95.40
2019-01-13T20:37:37.994Z,94.10
2019-01-13T20:40:06.712Z,95.30
2019-01-13T20:42:34.664Z,95.70
2019-01-13T20:45:02.175Z,94.80
2019-01-13T20:47:29.717Z,95.60
2019-01-13T20:49:57.223Z,95.30
2019-01-13T20:52:24.772Z,95.10
2019-01-13T20:54:52.249Z,95.30
2019-01-13T20:57:20.050Z,96.40
2019-01-13T20:59:47.509Z,96.30
2019-01-13T21:02:15.003Z,95.50
2019-01-13T21:04:42.492Z,95.40
2019-01-13T21:07:09.997Z,95.80
2019-01-13T21:09:37.489Z,95.60
2019-01-13T21:12:04.927Z,96.80
2019-01-13T21:14:32.340Z,95.90
2019-01-13T21:16:59.893Z,95.50
2019-01-13T21:19:27.440Z,95.60
2019-01-13T21:21:54.895Z,96.10
2019-01-13T21:24:22.424Z,95.30
2019-01-13T21:26:49.897Z,95.40
2019-01-13T21:29:17.390Z,94.30
2019-01-13T21:31:44.826Z,94.30
2019-01-13T21:34:12.350Z,95.90
2019-01-13T21:36:39.826Z,95.90
2019-01-13T21:39:08.180Z,95.50
2019-01-13T21:41:35.772Z,94.80
2019-01-13T21:44:03.349Z,94.10
2019-01-13T21:46:30.777Z,94.30
2019-01-13T21:48:58.867Z,95.30
2019-01-13T21:51:26.412Z,94.80
2019-01-13T21:53:53.965Z,95.90
2019-01-13T21:56:21.392Z,96.30
2019-01-13T21:58:48.801Z,96.20
2019-01-13T22:01:16.290Z,95.70
2019-01-13T22:03:43.731Z,96.00
2019-01-13T22:06:11.614Z,94.80
2019-01-13T22:08:39.057Z,95.40
2019-01-13T22:11:06.488Z,94.70
2019-01-13T22:13:33.844Z,94.80
2019-01-13T22:16:01.318Z,94.30
2019-01-13T22:18:28.749Z,94.50
2019-01-13T22:20:56.220Z,93.20
2019-01-13T22:23:23.999Z,91.90
2019-01-13T22:25:51.646Z,91.50
2019-01-13T22:28:19.001Z,91.10
2019-01-13T22:30:47.989Z,89.40
2019-01-13T22:33:15.835Z,91.30
2019-01-13T22:35:48.097Z,91.30
2019-01-13T22:38:12.865Z,92.50
2019-01-13T22:40:40.319Z,90.50
2019-01-13T22:43:08.114Z,92.20
2019-01-13T22:45:35.875Z,92.00
2019-01-13T22:48:03.258Z,91.20
2019-01-13T22:50:30.688Z,92.20
2019-01-13T22:52:58.106Z,91.20
2019-01-13T22:55:25.498Z,92.20
2019-01-13T22:57:52.868Z,90.90
2019-01-13T23:00:44.020Z,89.40
2019-01-13T23:03:11.671Z,89.20
2019-01-13T23:05:39.104Z,89.90
2019-01-13T23:08:06.465Z,90.10
2019-01-13T23:10:33.922Z,90.40
2019-01-13T23:13:01.370Z,90.30
2019-01-13T23:15:28.769Z,89.50
2019-01-13T23:17:56.113Z,90.30
2019-01-13T23:20:23.447Z,88.70
2019-01-13T23:22:51.102Z,91.00
2019-01-13T23:25:18.496Z,90.90
2019-01-13T23:27:45.958Z,90.20
2019-01-13T23:30:13.386Z,90.00
2019-01-13T23:32:41.042Z,89.20
2019-01-13T23:35:08.562Z,89.20
2019-01-13T23:37:35.975Z,87.40
2019-01-13T23:40:03.924Z,89.40
2019-01-13T23:42:31.579Z,87.80
2019-01-13T23:44:59.061Z,89.50
2019-01-13T23:47:26.503Z,88.00
2019-01-13T23:49:53.811Z,89.00
2019-01-13T23:52:21.206Z,89.50
2019-01-13T23:54:48.903Z,89.30
2019-01-13T23:57:16.340Z,88.70
2019-01-13T23:59:43.770Z,87.10
